Time;durP1;ratioP1;P1;durP2;ratioP2;P2;SDS_P1;SDS_P2;PMS_P1;PMS_P2;Temp;Humidity;BMP_temperature;BMP_pressure;BME280_temperature;BME280_humidity;BME280_pressure;Samples;Min_cycle;Max_cycle;Signal;HPM_P1;HPM_P2
2022/08/29 00:00:26;;;;;;;10.80;6.50;;;;;;;21.51;65.73;100248.42;1748752;80;21070;-68
2022/08/29 00:02:55;;;;;;;10.85;5.85;;;;;;;21.50;65.73;100248.62;1747800;79;21823;-68
2022/08/29 00:05:25;;;;;;;14.33;6.15;;;;;;;21.53;65.80;100246.89;1768227;79;21089;-68
2022/08/29 00:07:52;;;;;;;9.13;6.12;;;;;;;21.59;65.69;100253.32;1758533;81;21129;-66
2022/08/29 00:10:21;;;;;;;10.38;5.90;;;;;;;21.62;65.65;100245.72;1747274;80;21686;-61
2022/08/29 00:12:48;;;;;;;10.00;6.87;;;;;;;21.61;65.68;100233.34;1766097;81;21096;-63
2022/08/29 00:15:17;;;;;;;9.08;6.28;;;;;;;21.59;65.66;100223.87;1771552;78;21116;-62
2022/08/29 00:17:44;;;;;;;10.05;6.65;;;;;;;21.53;65.97;100222.80;1754929;79;21480;-64
2022/08/29 00:20:14;;;;;;;8.65;5.75;;;;;;;21.48;66.14;100217.21;1771603;78;21235;-62
2022/08/29 00:22:40;;;;;;;10.25;6.58;;;;;;;21.46;65.79;100213.88;1766715;79;21610;-62
2022/08/29 00:25:07;;;;;;;11.15;6.30;;;;;;;21.38;65.49;100214.86;1763795;79;21057;-64
2022/08/29 00:27:35;;;;;;;10.15;6.47;;;;;;;21.26;65.49;100219.13;1764730;79;21081;-66
2022/08/29 00:30:03;;;;;;;10.63;6.85;;;;;;;21.20;65.68;100231.45;1755286;79;21244;-67
2022/08/29 00:32:33;;;;;;;12.23;7.20;;;;;;;21.14;65.79;100235.72;1753364;80;21128;-67
2022/08/29 00:34:58;;;;;;;9.73;6.25;;;;;;;21.10;65.88;100233.13;1765813;79;22149;-66
2022/08/29 00:37:24;;;;;;;10.13;6.10;;;;;;;21.12;66.10;100238.30;1754139;79;21055;-68
2022/08/29 00:39:51;;;;;;;10.20;6.65;;;;;;;21.19;66.06;100235.66;1762100;79;21042;-66
2022/08/29 00:42:17;;;;;;;11.70;6.70;;;;;;;21.22;66.21;100229.92;1766538;79;21073;-64
2022/08/29 00:44:45;;;;;;;11.68;7.03;;;;;;;21.22;66.21;100224.57;1765361;79;21186;-66
2022/08/29 00:47:12;;;;;;;9.88;6.85;;;;;;;21.20;66.38;100231.45;1775300;80;21117;-66
2022/08/29 00:49:44;;;;;;;10.13;7.30;;;;;;;21.19;66.46;100228.97;1784386;78;21655;-65
2022/08/29 00:52:21;;;;;;;9.30;6.35;;;;;;;21.16;66.42;100227.50;1766330;79;21118;-65
2022/08/29 00:54:50;;;;;;;9.58;6.35;;;;;;;21.17;66.27;100223.81;1782027;78;21591;-64
2022/08/29 00:57:18;;;;;;;9.00;6.22;;;;;;;21.18;66.04;100226.78;1785673;78;21220;-64
2022/08/29 00:59:45;;;;;;;11.65;7.40;;;;;;;21.16;65.87;100215.45;1748231;80;21066;-64
2022/08/29 01:02:12;;;;;;;11.18;6.35;;;;;;;21.11;65.88;100220.58;1789689;78;21259;-63
2022/08/29 01:04:38;;;;;;;13.55;7.17;;;;;;;21.03;65.82;100218.89;1778390;78;21068;-66
2022/08/29 01:07:07;;;;;;;10.93;6.70;;;;;;;20.96;66.02;100224.69;1789653;80;21465;-67
2022/08/29 01:09:36;;;;;;;12.15;6.30;;;;;;;20.88;66.33;100223.00;1786451;78;21906;-64
2022/08/29 01:12:16;;;;;;;11.20;6.17;;;;;;;20.85;66.50;100223.39;1785387;79;21048;-65
2022/08/29 01:14:53;;;;;;;14.43;6.60;;;;;;;20.89;66.43;100220.63;1772157;78;21041;-64
2022/08/29 01:17:34;;;;;;;8.25;5.78;;;;;;;20.91;66.21;100218.61;1795528;78;21034;-65
2022/08/29 01:20:26;;;;;;;11.55;6.92;;;;;;;20.87;66.10;100220.52;1727465;81;21620;-65
2022/08/29 01:23:04;;;;;;;12.05;6.85;;;;;;;20.83;65.94;100220.58;1735388;79;21944;-63
2022/08/29 01:25:35;;;;;;;13.62;7.30;;;;;;;20.73;65.86;100211.06;1782135;78;21096;-65
2022/08/29 01:28:12;;;;;;;11.55;6.80;;;;;;;20.63;65.82;100210.56;1792392;78;21097;-64
2022/08/29 01:30:58;;;;;;;9.80;6.83;;;;;;;20.58;65.74;100212.44;1785140;79;21166;-62
2022/08/29 01:33:26;;;;;;;11.53;7.08;;;;;;;20.59;65.62;100210.59;1731917;81;21064;-64
2022/08/29 01:35:53;;;;;;;10.28;6.85;;;;;;;20.57;65.58;100205.95;1768367;79;21118;-64
2022/08/29 01:38:26;;;;;;;9.68;7.05;;;;;;;20.52;65.62;100199.84;1791024;78;21089;-67
2022/08/29 01:40:48;;;;;;;13.45;7.62;;;;;;;20.49;65.72;100198.06;1760676;79;21049;-66
2022/08/29 01:43:15;;;;;;;12.40;7.05;;;;;;;20.46;65.79;100205.97;1771320;78;21109;-63
2022/08/29 01:45:41;;;;;;;10.58;6.85;;;;;;;20.43;65.86;100205.02;1779592;78;21089;-63
2022/08/29 01:48:08;;;;;;;10.82;7.80;;;;;;;20.41;65.76;100203.87;1768158;79;21517;-64
2022/08/29 01:50:35;;;;;;;10.32;7.35;;;;;;;20.43;65.84;100195.66;1789194;78;21104;-64
2022/08/29 01:53:01;;;;;;;13.72;7.17;;;;;;;20.42;66.36;100192.66;1773784;78;21073;-65
2022/08/29 01:55:28;;;;;;;14.30;8.05;;;;;;;20.40;66.49;100195.52;1782536;78;21058;-63
2022/08/29 01:57:55;;;;;;;13.22;7.20;;;;;;;20.37;66.62;100198.57;1788530;79;20990;-63
2022/08/29 02:00:22;;;;;;;11.83;7.70;;;;;;;20.36;66.89;100201.47;1764558;78;21118;-65
2022/08/29 02:02:49;;;;;;;10.50;6.60;;;;;;;20.35;66.82;100200.61;1734057;80;21002;-67
2022/08/29 02:05:15;;;;;;;12.37;7.70;;;;;;;20.36;66.61;100205.47;1787804;78;21058;-65
2022/08/29 02:07:43;;;;;;;10.75;7.40;;;;;;;20.39;66.50;100201.91;1764180;79;21097;-67
2022/08/29 02:10:10;;;;;;;15.03;7.70;;;;;;;20.43;66.45;100200.19;1789767;78;21711;-67
2022/08/29 02:12:37;;;;;;;10.72;7.47;;;;;;;20.44;66.51;100195.96;1777058;80;21178;-68
2022/08/29 02:15:05;;;;;;;12.33;7.45;;;;;;;20.48;66.43;100200.44;1775674;78;21061;-67
2022/08/29 02:17:32;;;;;;;17.02;7.87;;;;;;;20.48;66.29;100203.92;1778711;79;21026;-67
2022/08/29 02:19:59;;;;;;;12.33;7.53;;;;;;;20.46;66.43;100197.95;1779512;78;21057;-67
2022/08/29 02:22:26;;;;;;;12.63;6.70;;;;;;;20.48;66.35;100199.92;1775911;80;21058;-67
2022/08/29 02:24:53;;;;;;;13.90;7.08;;;;;;;20.54;66.12;100203.66;1785780;79;21960;-66
2022/08/29 02:27:19;;;;;;;11.53;7.05;;;;;;;20.57;66.10;100194.73;1781942;78;21012;-62
2022/08/29 02:29:46;;;;;;;10.30;6.55;;;;;;;20.57;66.07;100202.76;1783536;78;21062;-62
2022/08/29 02:32:13;;;;;;;10.60;7.45;;;;;;;20.56;66.12;100202.46;1752182;80;21111;-62
2022/08/29 02:34:43;;;;;;;9.60;7.30;;;;;;;20.54;66.05;100199.16;1713237;80;21112;-62
2022/08/29 02:37:10;;;;;;;11.80;6.75;;;;;;;20.52;65.83;100197.17;1751598;78;21189;-62
2022/08/29 02:39:36;;;;;;;9.95;6.50;;;;;;;20.52;65.72;100204.37;1742739;80;21216;-62
2022/08/29 02:42:04;;;;;;;10.95;7.03;;;;;;;20.53;65.70;100200.16;1781711;78;21121;-62
2022/08/29 02:44:31;;;;;;;11.20;6.45;;;;;;;20.54;65.77;100207.66;1752717;79;21088;-62
2022/08/29 02:46:57;;;;;;;9.70;6.78;;;;;;;20.51;65.53;100200.03;1761502;79;21091;-62
2022/08/29 02:49:24;;;;;;;9.00;6.25;;;;;;;20.49;65.49;100205.56;1761631;78;21422;-65
2022/08/29 02:51:50;;;;;;;13.48;7.17;;;;;;;20.45;65.21;100212.33;1765391;80;21022;-66
2022/08/29 02:54:17;;;;;;;9.80;6.85;;;;;;;20.41;65.18;100207.88;1773150;80;21039;-67
2022/08/29 02:56:43;;;;;;;11.20;6.60;;;;;;;20.37;65.28;100207.11;1769970;78;21012;-67
2022/08/29 02:59:11;;;;;;;8.75;6.17;;;;;;;20.36;65.31;100208.96;1774849;79;21517;-67
2022/08/29 03:01:37;;;;;;;11.43;6.50;;;;;;;20.39;65.24;100211.26;1769775;79;22134;-68
2022/08/29 03:04:04;;;;;;;10.75;6.55;;;;;;;20.38;65.20;100211.45;1778626;79;21090;-68
2022/08/29 03:06:31;;;;;;;12.90;7.12;;;;;;;20.33;65.23;100208.52;1769140;80;21030;-68
2022/08/29 03:08:58;;;;;;;10.70;6.92;;;;;;;20.30;65.33;100218.25;1775223;78;21046;-69
2022/08/29 03:11:25;;;;;;;8.35;5.65;;;;;;;20.27;65.24;100218.62;1768433;79;20998;-69
2022/08/29 03:13:52;;;;;;;10.70;5.62;;;;;;;20.26;65.03;100222.30;1765059;79;21236;-68
2022/08/29 03:16:19;;;;;;;7.78;5.47;;;;;;;20.21;64.92;100222.38;1761749;80;21322;-68
2022/08/29 03:18:45;;;;;;;7.95;5.30;;;;;;;20.21;64.76;100223.71;1759450;80;21052;-70
2022/08/29 03:21:18;;;;;;;8.98;5.42;;;;;;;20.25;64.57;100226.01;1759233;78;21124;-68
2022/08/29 03:23:45;;;;;;;12.23;6.50;;;;;;;20.23;64.44;100227.02;1775548;78;21065;-68
2022/08/29 03:26:12;;;;;;;9.28;5.50;;;;;;;20.22;64.29;100226.72;1771502;78;21091;-67
2022/08/29 03:28:39;;;;;;;8.90;5.62;;;;;;;20.23;64.16;100220.85;1769880;78;21021;-67
2022/08/29 03:31:06;;;;;;;13.60;6.47;;;;;;;20.18;64.02;100226.76;1777188;78;21096;-67
2022/08/29 03:33:33;;;;;;;10.30;6.35;;;;;;;20.14;63.89;100224.64;1774627;78;21149;-67
2022/08/29 03:36:00;;;;;;;10.70;6.00;;;;;;;20.10;63.95;100236.22;1785133;78;20990;-67
2022/08/29 03:38:26;;;;;;;11.35;5.83;;;;;;;20.06;63.96;100241.63;1771796;78;21961;-68
2022/08/29 03:40:53;;;;;;;9.38;5.58;;;;;;;20.07;63.87;100241.12;1779987;78;21050;-69
2022/08/29 03:43:20;;;;;;;12.60;5.37;;;;;;;20.10;63.73;100236.22;1772969;78;21069;-69
2022/08/29 03:45:48;;;;;;;8.88;5.28;;;;;;;20.13;63.56;100234.52;1778371;78;21037;-65
2022/08/29 03:48:15;;;;;;;11.85;5.47;;;;;;;20.12;63.36;100240.05;1770576;78;21184;-63
2022/08/29 03:50:42;;;;;;;11.90;6.10;;;;;;;20.13;63.13;100241.19;1779878;78;21267;-64
2022/08/29 03:53:08;;;;;;;11.90;5.60;;;;;;;20.10;62.99;100242.90;1765215;78;21112;-66
2022/08/29 03:55:35;;;;;;;11.65;6.42;;;;;;;20.09;62.94;100245.27;1780776;78;22239;-68
2022/08/29 03:58:02;;;;;;;10.72;6.30;;;;;;;20.08;62.93;100246.27;1774048;80;21010;-63
2022/08/29 04:00:29;;;;;;;14.65;5.87;;;;;;;20.08;62.80;100242.27;1763606;78;21061;-65
2022/08/29 04:02:57;;;;;;;8.70;5.40;;;;;;;20.06;62.76;100246.16;1761040;78;21229;-65
2022/08/29 04:05:24;;;;;;;9.65;4.95;;;;;;;20.07;62.64;100246.46;1770695;78;21061;-65
2022/08/29 04:07:53;;;;;;;9.58;5.20;;;;;;;20.12;62.48;100255.55;1772532;78;21093;-67
2022/08/29 04:10:25;;;;;;;10.48;5.83;;;;;;;20.15;62.40;100247.68;1770018;78;21124;-64
2022/08/29 04:12:53;;;;;;;12.75;5.83;;;;;;;20.16;62.41;100251.50;1732842;82;21065;-67
2022/08/29 04:15:19;;;;;;;10.18;5.65;;;;;;;20.19;62.33;100256.96;1735327;81;21283;-67
2022/08/29 04:17:46;;;;;;;9.88;6.17;;;;;;;20.20;62.26;100252.77;1781050;78;20998;-65
2022/08/29 04:32:31;;;;;;;12.30;5.53;;;;;;;21.24;60.52;100246.08;1800898;77;22192;-66
2022/08/29 04:34:58;;;;;;;9.75;5.67;;;;;;;21.39;59.89;100256.67;1755797;79;21545;-60
2022/08/29 04:37:25;;;;;;;13.85;5.95;;;;;;;21.43;59.79;100248.55;1771151;79;21149;-59
2022/08/29 04:39:51;;;;;;;10.40;5.25;;;;;;;21.45;59.60;100255.05;1762311;79;21084;-63
2022/08/29 04:42:18;;;;;;;9.48;6.30;;;;;;;21.42;59.44;100252.27;1771745;78;21097;-59
2022/08/29 04:44:46;;;;;;;11.97;5.58;;;;;;;21.39;59.67;100258.02;1758061;78;21070;-60
2022/08/29 04:47:14;;;;;;;13.28;6.33;;;;;;;21.36;59.54;100255.72;1776115;78;21128;-61
2022/08/29 04:49:41;;;;;;;10.70;6.17;;;;;;;21.33;59.61;100258.30;1775620;79;21459;-62
2022/08/29 04:52:09;;;;;;;14.63;6.37;;;;;;;21.31;59.33;100260.84;1767275;78;21526;-61
2022/08/29 04:54:36;;;;;;;8.75;5.90;;;;;;;21.28;59.22;100258.06;1769824;79;21107;-68
2022/08/29 04:57:03;;;;;;;10.45;5.70;;;;;;;21.23;58.69;100253.81;1759728;79;21535;-66
2022/08/29 04:59:30;;;;;;;10.25;5.42;;;;;;;21.20;58.78;100254.69;1764341;79;21134;-67
2022/08/29 05:01:58;;;;;;;8.68;5.47;;;;;;;21.19;58.66;100253.05;1748085;79;21048;-65
2022/08/29 05:04:25;;;;;;;12.85;6.05;;;;;;;21.20;58.37;100255.53;1766221;79;21106;-66
2022/08/29 05:06:52;;;;;;;9.70;5.87;;;;;;;21.20;58.34;100266.73;1720140;80;21128;-64
2022/08/29 05:09:21;;;;;;;10.60;5.20;;;;;;;21.19;58.57;100256.55;1729076;81;21067;-68
2022/08/29 05:11:47;;;;;;;9.53;5.00;;;;;;;21.24;58.67;100259.45;1721233;81;21558;-65
2022/08/29 05:14:14;;;;;;;8.93;4.65;;;;;;;21.32;58.39;100262.50;1726585;81;21476;-67
2022/08/29 05:16:42;;;;;;;15.38;5.60;;;;;;;21.37;58.25;100260.06;1722269;82;21460;-67
2022/08/29 05:19:09;;;;;;;12.73;5.75;;;;;;;21.40;58.57;100258.83;1724157;81;21014;-64
2022/08/29 05:21:38;;;;;;;12.28;6.28;;;;;;;21.45;58.38;100258.57;1731620;81;21111;-69
2022/08/29 05:24:07;;;;;;;8.68;5.62;;;;;;;21.48;58.33;100264.06;1730328;80;21045;-68
2022/08/29 05:26:38;;;;;;;9.60;5.55;;;;;;;21.50;58.38;100254.81;1719185;81;21190;-70
2022/08/29 05:29:06;;;;;;;15.48;5.62;;;;;;;21.54;58.77;100252.56;1697854;82;21060;-67
2022/08/29 05:31:35;;;;;;;9.75;5.53;;;;;;;21.60;58.52;100257.63;1706675;82;21017;-63
2022/08/29 05:34:03;;;;;;;10.32;6.00;;;;;;;21.65;58.51;100253.84;1726309;82;21102;-62
2022/08/29 05:36:32;;;;;;;10.25;5.67;;;;;;;21.69;58.00;100253.26;1728986;81;21073;-64
2022/08/29 05:39:00;;;;;;;10.88;5.97;;;;;;;21.74;58.08;100257.17;1700820;82;21861;-62
2022/08/29 05:41:27;;;;;;;9.93;5.17;;;;;;;21.77;58.05;100253.61;1706161;82;21058;-63
2022/08/29 05:43:56;;;;;;;10.53;5.53;;;;;;;21.87;58.01;100255.89;1701321;82;21180;-66
2022/08/29 05:46:23;;;;;;;10.60;6.08;;;;;;;22.02;57.75;100254.41;1729742;81;21738;-66
2022/08/29 05:48:49;;;;;;;11.53;6.20;;;;;;;22.15;57.57;100247.75;1720767;81;21100;-67
2022/08/29 05:51:20;;;;;;;12.53;5.65;;;;;;;22.25;57.28;100246.02;1707330;82;21085;-63
2022/08/29 05:53:47;;;;;;;10.78;5.90;;;;;;;22.36;56.57;100250.83;1703339;82;21080;-67
2022/08/29 05:56:23;;;;;;;11.78;6.45;;;;;;;22.42;55.95;100251.33;1718593;82;21077;-69
2022/08/29 05:58:50;;;;;;;10.35;6.33;;;;;;;22.48;55.59;100255.56;1733641;81;21750;-66
2022/08/29 06:01:26;;;;;;;10.20;6.83;;;;;;;22.56;55.31;100254.03;1727338;81;21132;-66
2022/08/29 06:03:53;;;;;;;11.35;7.30;;;;;;;22.62;55.30;100253.22;1728985;81;21161;-63
2022/08/29 06:06:22;;;;;;;15.18;7.30;;;;;;;22.70;55.02;100253.02;1702973;82;21109;-64
2022/08/29 06:08:48;;;;;;;10.00;7.10;;;;;;;22.78;54.36;100249.33;1689806;83;21481;-63
2022/08/29 06:11:19;;;;;;;12.10;7.05;;;;;;;22.86;54.28;100256.32;1699812;82;21217;-65
2022/08/29 06:13:45;;;;;;;11.28;7.97;;;;;;;22.94;54.43;100246.20;1697667;82;21664;-63
2022/08/29 06:16:14;;;;;;;14.10;7.25;;;;;;;23.04;53.97;100243.09;1702442;82;21274;-63
2022/08/29 06:18:41;;;;;;;12.40;7.70;;;;;;;23.13;54.10;100249.95;1712464;82;21351;-63
2022/08/29 06:21:08;;;;;;;12.73;8.35;;;;;;;23.24;53.52;100256.52;1720395;81;21769;-65
2022/08/29 06:23:36;;;;;;;13.35;8.18;;;;;;;23.33;53.07;100255.78;1720139;82;21604;-64
2022/08/29 06:26:03;;;;;;;13.25;8.75;;;;;;;23.43;52.14;100261.53;1728306;82;21088;-65
2022/08/29 06:28:30;;;;;;;12.95;8.73;;;;;;;23.49;51.66;100259.36;1729254;80;21251;-66
2022/08/29 06:31:08;;;;;;;16.02;9.03;;;;;;;23.56;51.49;100257.99;1719547;81;21128;-67
2022/08/29 06:33:35;;;;;;;16.82;8.35;;;;;;;23.64;51.24;100258.30;1706338;82;20995;-63
2022/08/29 06:36:03;;;;;;;12.78;8.45;;;;;;;23.72;51.13;100260.72;1735216;81;21123;-64
2022/08/29 06:38:32;;;;;;;16.40;9.05;;;;;;;23.80;51.24;100267.20;1723832;81;21125;-60
2022/08/29 06:41:05;;;;;;;14.95;9.43;;;;;;;23.88;50.88;100262.15;1716035;81;21187;-61
2022/08/29 06:43:32;;;;;;;11.22;8.78;;;;;;;23.96;50.51;100260.56;1703274;82;21195;-61
2022/08/29 06:45:58;;;;;;;12.03;9.00;;;;;;;24.06;50.54;100270.86;1721322;80;21094;-62
2022/08/29 06:48:25;;;;;;;13.35;9.45;;;;;;;24.16;50.37;100271.71;1699650;82;21103;-63
2022/08/29 06:50:51;;;;;;;13.58;8.95;;;;;;;24.24;49.64;100275.00;1703118;82;21060;-64
2022/08/29 06:53:19;;;;;;;13.95;9.78;;;;;;;24.33;49.41;100278.78;1697351;82;21224;-61
2022/08/29 06:55:46;;;;;;;18.45;9.28;;;;;;;24.41;49.33;100274.45;1704432;82;21026;-63
2022/08/29 06:58:12;;;;;;;15.90;9.60;;;;;;;24.50;48.69;100275.05;1701164;82;21132;-65
2022/08/29 07:00:41;;;;;;;13.83;9.50;;;;;;;24.59;48.68;100275.92;1689262;83;21585;-60
2022/08/29 07:03:07;;;;;;;12.78;9.18;;;;;;;24.69;48.19;100272.75;1700906;82;21015;-63
2022/08/29 07:05:34;;;;;;;12.30;10.25;;;;;;;24.78;47.90;100272.80;1701140;82;22055;-62
2022/08/29 07:08:01;;;;;;;13.85;10.03;;;;;;;24.88;47.39;100272.31;1697426;82;21684;-64
2022/08/29 07:10:28;;;;;;;15.50;9.83;;;;;;;24.95;47.35;100270.38;1723647;81;21120;-62
2022/08/29 07:12:56;;;;;;;13.05;9.75;;;;;;;25.04;46.72;100273.07;1734006;80;21140;-63
2022/08/29 07:15:23;;;;;;;13.98;10.55;;;;;;;25.13;46.66;100270.10;1735016;80;21084;-62
2022/08/29 07:17:50;;;;;;;12.85;9.45;;;;;;;25.21;46.44;100267.13;1719985;81;21231;-63
2022/08/29 07:20:17;;;;;;;12.37;9.20;;;;;;;25.30;45.98;100262.30;1722619;81;21015;-63
2022/08/29 07:22:46;;;;;;;13.48;10.18;;;;;;;25.36;45.94;100266.27;1734080;81;21087;-61
2022/08/29 07:25:12;;;;;;;12.73;9.43;;;;;;;25.43;46.15;100270.24;1731805;81;21077;-63
2022/08/29 07:27:38;;;;;;;17.82;10.48;;;;;;;25.52;45.70;100270.77;1702105;82;21512;-63
2022/08/29 07:30:06;;;;;;;14.15;10.03;;;;;;;25.59;46.05;100270.19;1698715;83;21240;-62
2022/08/29 07:32:33;;;;;;;14.68;10.30;;;;;;;25.69;45.85;100270.48;1696152;82;21633;-65
2022/08/29 07:34:59;;;;;;;13.70;10.18;;;;;;;25.77;45.65;100263.44;1695670;83;21071;-67
2022/08/29 07:37:26;;;;;;;13.80;10.25;;;;;;;25.87;45.19;100264.25;1694635;83;21093;-67
2022/08/29 07:39:53;;;;;;;14.43;10.35;;;;;;;25.97;44.08;100264.26;1730100;81;21152;-65
2022/08/29 07:42:19;;;;;;;12.53;9.83;;;;;;;26.05;44.31;100262.06;1723715;82;21192;-69
2022/08/29 07:44:46;;;;;;;13.62;10.05;;;;;;;26.12;44.36;100266.02;1729063;82;21578;-65
2022/08/29 07:47:13;;;;;;;15.83;9.78;;;;;;;26.22;44.68;100268.17;1735916;80;21422;-69
2022/08/29 07:49:39;;;;;;;16.90;10.35;;;;;;;26.33;44.29;100265.52;1734360;81;21031;-68
2022/08/29 07:52:06;;;;;;;13.08;9.65;;;;;;;26.44;43.86;100267.94;1730250;81;21049;-68
2022/08/29 07:54:33;;;;;;;16.32;9.88;;;;;;;26.55;42.47;100261.47;1723978;82;21144;-65
2022/08/29 07:56:59;;;;;;;14.05;9.58;;;;;;;26.64;42.33;100260.91;1725364;81;21297;-67
2022/08/29 07:59:26;;;;;;;13.50;10.38;;;;;;;26.73;42.04;100256.53;1727924;81;21538;-69
2022/08/29 08:01:52;;;;;;;12.45;9.73;;;;;;;26.80;41.86;100254.03;1711297;82;21022;-69
2022/08/29 08:04:19;;;;;;;18.07;10.18;;;;;;;26.90;41.82;100253.95;1713764;82;21057;-67
2022/08/29 08:06:45;;;;;;;12.82;9.45;;;;;;;26.98;41.78;100249.56;1690290;81;22274;-69
2022/08/29 08:09:14;;;;;;;18.55;10.48;;;;;;;27.05;42.00;100251.64;1728232;81;22454;-68
2022/08/29 08:11:41;;;;;;;13.13;9.83;;;;;;;27.15;42.04;100261.83;1731159;80;21163;-69
2022/08/29 08:14:08;;;;;;;17.87;9.83;;;;;;;27.23;41.23;100262.83;1727968;80;21187;-66
2022/08/29 08:16:36;;;;;;;12.68;9.30;;;;;;;27.34;41.73;100259.33;1729366;80;21108;-67
2022/08/29 08:19:03;;;;;;;14.20;10.70;;;;;;;27.47;41.29;100260.12;1730667;81;21331;-68
2022/08/29 08:21:30;;;;;;;13.05;9.80;;;;;;;27.56;40.41;100266.27;1720451;81;21059;-68
2022/08/29 08:23:57;;;;;;;14.83;10.00;;;;;;;27.66;39.46;100271.62;1726461;82;21101;-70
2022/08/29 08:26:24;;;;;;;17.67;10.10;;;;;;;27.73;39.73;100265.53;1724748;82;21663;-68
2022/08/29 08:28:51;;;;;;;13.88;9.98;;;;;;;27.79;39.84;100259.19;1699704;82;22348;-68
2022/08/29 08:31:18;;;;;;;17.77;9.80;;;;;;;27.87;39.69;100267.43;1707842;81;22146;-68
2022/08/29 08:33:45;;;;;;;11.97;8.95;;;;;;;27.97;38.15;100267.66;1723318;82;21544;-68
2022/08/29 08:36:20;;;;;;;13.83;9.63;;;;;;;28.04;38.05;100263.45;1713885;82;21241;-69
2022/08/29 08:38:47;;;;;;;15.85;9.88;;;;;;;28.10;38.22;100255.20;1716658;82;21089;-67
2022/08/29 08:41:54;;;;;;;14.78;10.82;;;;;;;28.20;38.40;100262.69;1702324;82;21072;-69
2022/08/29 08:44:30;;;;;;;13.43;9.55;;;;;;;28.29;37.90;100256.34;1707381;82;21265;-65
2022/08/29 08:46:58;;;;;;;12.55;9.33;;;;;;;28.40;37.62;100258.71;1707187;81;21144;-69
2022/08/29 08:49:50;;;;;;;13.88;9.70;;;;;;;28.48;37.76;100259.64;1709780;82;21102;-68
2022/08/29 08:52:30;;;;;;;15.08;8.58;;;;;;;28.55;37.34;100253.55;1714648;81;21031;-64
2022/08/29 08:55:05;;;;;;;13.13;9.58;;;;;;;28.66;36.98;100262.13;1701846;82;21073;-67
2022/08/29 08:57:38;;;;;;;15.23;8.93;;;;;;;28.77;36.26;100265.03;1705864;81;21240;-66
2022/08/29 09:00:10;;;;;;;11.90;8.80;;;;;;;28.85;35.93;100268.66;1689802;83;21313;-67
2022/08/29 09:02:47;;;;;;;11.55;8.83;;;;;;;28.92;35.31;100266.63;1697269;83;21490;-66
2022/08/29 09:05:26;;;;;;;13.40;8.90;;;;;;;28.98;35.34;100266.97;1708223;82;21133;-65
2022/08/29 09:08:20;;;;;;;11.83;8.55;;;;;;;29.03;34.77;100256.75;1704163;82;21072;-66
2022/08/29 09:11:35;;;;;;;13.03;9.90;;;;;;;29.11;34.65;100263.64;1692617;82;21471;-66
